Steady Brook, Canada
Current Conditions -  °F | °C
As of 5:00 AM on Sunday 26 Oct 2014 (Local Time) from CYDF Reporting Station
Overcast Overcast  
Wind Chill: 30°   Ceiling: 2200
Heat Index: 39°   Visibility: 12mi
Dew Point: 37°   Wind: 16mph
Humidity: 93%   Direction: 40°NE
Pressure: 29.58"   Gusts: NA
Location:  48.97°N, 57.8°W
Report Text: CYDF 260700Z 04014KT 12SM FEW012 BKN022 OVC061 04/03 A2958 RMK SC2SC5SC1 SLP018
Loading
Personal Weather Stations






























Interactive Weather Map
Tropical Storm Tracking
New forecast layout! Learn more

10-Day Weather Forecast

Advertisements
Track Severe Weather on mobile